sensor_id;sensor_type;location;lat;lon;timestamp;P1;durP1;ratioP1;P2;durP2;ratioP2
1048;SDS011;513;51.444;7.196;2022-10-19T00:00:59;11.03;;;5.67;;
1048;SDS011;513;51.444;7.196;2022-10-19T00:03:26;15.30;;;5.50;;
1048;SDS011;513;51.444;7.196;2022-10-19T00:05:53;15.73;;;6.73;;
1048;SDS011;513;51.444;7.196;2022-10-19T00:08:19;15.30;;;5.67;;
1048;SDS011;513;51.444;7.196;2022-10-19T00:10:46;17.47;;;5.63;;
1048;SDS011;513;51.444;7.196;2022-10-19T00:13:13;17.50;;;5.77;;
1048;SDS011;513;51.444;7.196;2022-10-19T00:15:41;18.07;;;5.60;;
1048;SDS011;513;51.444;7.196;2022-10-19T00:18:09;9.40;;;5.40;;
1048;SDS011;513;51.444;7.196;2022-10-19T00:20:35;16.23;;;5.53;;
1048;SDS011;513;51.444;7.196;2022-10-19T00:23:02;10.97;;;5.77;;
1048;SDS011;513;51.444;7.196;2022-10-19T00:25:29;15.67;;;5.47;;
1048;SDS011;513;51.444;7.196;2022-10-19T00:27:56;23.53;;;6.63;;
1048;SDS011;513;51.444;7.196;2022-10-19T00:30:23;10.40;;;5.47;;
1048;SDS011;513;51.444;7.196;2022-10-19T00:32:51;17.90;;;5.47;;
1048;SDS011;513;51.444;7.196;2022-10-19T00:35:17;11.27;;;5.00;;
1048;SDS011;513;51.444;7.196;2022-10-19T00:37:44;12.07;;;5.67;;
1048;SDS011;513;51.444;7.196;2022-10-19T00:40:11;12.37;;;5.00;;
1048;SDS011;513;51.444;7.196;2022-10-19T00:42:38;8.80;;;4.90;;
1048;SDS011;513;51.444;7.196;2022-10-19T00:45:08;7.83;;;5.20;;
1048;SDS011;513;51.444;7.196;2022-10-19T00:47:39;20.57;;;5.63;;
1048;SDS011;513;51.444;7.196;2022-10-19T00:50:09;13.23;;;5.43;;
1048;SDS011;513;51.444;7.196;2022-10-19T00:52:38;9.03;;;4.67;;
1048;SDS011;513;51.444;7.196;2022-10-19T00:55:05;12.23;;;5.10;;
1048;SDS011;513;51.444;7.196;2022-10-19T00:57:33;13.10;;;4.97;;
1048;SDS011;513;51.444;7.196;2022-10-19T01:00:00;15.73;;;5.20;;
1048;SDS011;513;51.444;7.196;2022-10-19T01:02:30;16.63;;;4.67;;
1048;SDS011;513;51.444;7.196;2022-10-19T01:04:56;12.10;;;4.73;;
1048;SDS011;513;51.444;7.196;2022-10-19T01:07:25;10.23;;;4.60;;
1048;SDS011;513;51.444;7.196;2022-10-19T01:09:52;15.27;;;4.57;;
1048;SDS011;513;51.444;7.196;2022-10-19T01:12:28;14.43;;;5.10;;
1048;SDS011;513;51.444;7.196;2022-10-19T01:15:07;17.60;;;5.10;;
1048;SDS011;513;51.444;7.196;2022-10-19T01:17:45;12.37;;;5.20;;
1048;SDS011;513;51.444;7.196;2022-10-19T01:20:28;13.00;;;4.70;;
1048;SDS011;513;51.444;7.196;2022-10-19T01:26:07;15.37;;;5.03;;
1048;SDS011;513;51.444;7.196;2022-10-19T01:28:48;13.53;;;4.57;;
1048;SDS011;513;51.444;7.196;2022-10-19T01:31:24;11.43;;;5.07;;
1048;SDS011;513;51.444;7.196;2022-10-19T01:33:57;14.43;;;5.27;;
1048;SDS011;513;51.444;7.196;2022-10-19T01:36:31;13.17;;;4.77;;
1048;SDS011;513;51.444;7.196;2022-10-19T01:39:07;13.80;;;5.47;;
1048;SDS011;513;51.444;7.196;2022-10-19T01:41:40;11.10;;;5.80;;
1048;SDS011;513;51.444;7.196;2022-10-19T01:44:12;11.50;;;5.57;;
1048;SDS011;513;51.444;7.196;2022-10-19T01:46:43;11.03;;;5.07;;
1048;SDS011;513;51.444;7.196;2022-10-19T01:49:16;9.67;;;5.43;;
1048;SDS011;513;51.444;7.196;2022-10-19T01:51:46;12.97;;;5.63;;
1048;SDS011;513;51.444;7.196;2022-10-19T01:54:16;8.77;;;4.83;;
1048;SDS011;513;51.444;7.196;2022-10-19T01:56:45;13.57;;;5.33;;
1048;SDS011;513;51.444;7.196;2022-10-19T01:59:14;12.83;;;4.77;;
1048;SDS011;513;51.444;7.196;2022-10-19T02:01:45;10.80;;;5.47;;
1048;SDS011;513;51.444;7.196;2022-10-19T02:04:16;14.13;;;5.73;;
1048;SDS011;513;51.444;7.196;2022-10-19T02:06:45;14.33;;;5.67;;
1048;SDS011;513;51.444;7.196;2022-10-19T02:09:12;13.00;;;5.40;;
1048;SDS011;513;51.444;7.196;2022-10-19T02:11:43;12.37;;;5.63;;
1048;SDS011;513;51.444;7.196;2022-10-19T02:14:11;10.03;;;5.63;;
1048;SDS011;513;51.444;7.196;2022-10-19T02:16:41;19.87;;;5.97;;
1048;SDS011;513;51.444;7.196;2022-10-19T02:19:14;17.73;;;6.03;;
1048;SDS011;513;51.444;7.196;2022-10-19T02:21:42;9.67;;;5.73;;
1048;SDS011;513;51.444;7.196;2022-10-19T02:24:09;17.83;;;6.37;;
1048;SDS011;513;51.444;7.196;2022-10-19T02:26:36;13.57;;;6.40;;
1048;SDS011;513;51.444;7.196;2022-10-19T02:29:04;13.50;;;6.60;;
1048;SDS011;513;51.444;7.196;2022-10-19T02:31:31;13.23;;;6.10;;
1048;SDS011;513;51.444;7.196;2022-10-19T02:33:59;10.67;;;5.77;;
1048;SDS011;513;51.444;7.196;2022-10-19T02:36:26;11.80;;;6.47;;
1048;SDS011;513;51.444;7.196;2022-10-19T02:38:53;13.23;;;6.20;;
1048;SDS011;513;51.444;7.196;2022-10-19T02:41:20;15.80;;;6.20;;
1048;SDS011;513;51.444;7.196;2022-10-19T02:43:53;15.97;;;6.00;;
1048;SDS011;513;51.444;7.196;2022-10-19T02:46:24;14.83;;;6.50;;
1048;SDS011;513;51.444;7.196;2022-10-19T02:48:57;16.67;;;5.67;;
1048;SDS011;513;51.444;7.196;2022-10-19T02:51:32;15.63;;;6.47;;
1048;SDS011;513;51.444;7.196;2022-10-19T02:54:00;11.13;;;6.20;;
1048;SDS011;513;51.444;7.196;2022-10-19T02:56:28;18.47;;;6.50;;
1048;SDS011;513;51.444;7.196;2022-10-19T02:58:55;10.83;;;5.33;;
1048;SDS011;513;51.444;7.196;2022-10-19T03:01:22;16.67;;;6.10;;
1048;SDS011;513;51.444;7.196;2022-10-19T03:03:48;12.93;;;6.37;;
1048;SDS011;513;51.444;7.196;2022-10-19T03:06:15;11.40;;;6.17;;
1048;SDS011;513;51.444;7.196;2022-10-19T03:08:43;13.53;;;6.23;;
1048;SDS011;513;51.444;7.196;2022-10-19T03:11:10;13.73;;;6.47;;
1048;SDS011;513;51.444;7.196;2022-10-19T03:13:37;10.90;;;5.63;;
1048;SDS011;513;51.444;7.196;2022-10-19T03:16:05;14.63;;;6.33;;
1048;SDS011;513;51.444;7.196;2022-10-19T03:18:32;14.50;;;6.27;;
1048;SDS011;513;51.444;7.196;2022-10-19T03:21:02;12.70;;;6.70;;
1048;SDS011;513;51.444;7.196;2022-10-19T03:23:31;10.90;;;6.53;;
1048;SDS011;513;51.444;7.196;2022-10-19T03:26:00;12.30;;;6.93;;
1048;SDS011;513;51.444;7.196;2022-10-19T03:28:27;18.33;;;7.30;;
1048;SDS011;513;51.444;7.196;2022-10-19T03:30:54;11.40;;;7.47;;
1048;SDS011;513;51.444;7.196;2022-10-19T03:33:21;13.60;;;7.43;;
1048;SDS011;513;51.444;7.196;2022-10-19T03:35:48;14.37;;;6.77;;
1048;SDS011;513;51.444;7.196;2022-10-19T03:38:15;12.20;;;7.27;;
1048;SDS011;513;51.444;7.196;2022-10-19T03:40:42;19.90;;;7.57;;
1048;SDS011;513;51.444;7.196;2022-10-19T03:43:10;11.97;;;7.47;;
1048;SDS011;513;51.444;7.196;2022-10-19T03:45:37;16.00;;;7.27;;
1048;SDS011;513;51.444;7.196;2022-10-19T03:48:04;10.67;;;6.23;;
1048;SDS011;513;51.444;7.196;2022-10-19T03:50:31;11.60;;;7.07;;
1048;SDS011;513;51.444;7.196;2022-10-19T03:52:57;12.00;;;6.53;;
1048;SDS011;513;51.444;7.196;2022-10-19T03:55:24;11.27;;;6.33;;
1048;SDS011;513;51.444;7.196;2022-10-19T03:57:51;14.77;;;7.17;;
1048;SDS011;513;51.444;7.196;2022-10-19T04:00:19;10.27;;;6.80;;
1048;SDS011;513;51.444;7.196;2022-10-19T04:02:45;14.27;;;7.00;;
1048;SDS011;513;51.444;7.196;2022-10-19T04:05:12;10.17;;;7.23;;
1048;SDS011;513;51.444;7.196;2022-10-19T04:07:39;14.33;;;7.10;;
1048;SDS011;513;51.444;7.196;2022-10-19T04:10:06;11.60;;;7.07;;
1048;SDS011;513;51.444;7.196;2022-10-19T04:12:33;18.70;;;8.17;;
1048;SDS011;513;51.444;7.196;2022-10-19T04:15:00;12.30;;;7.17;;
1048;SDS011;513;51.444;7.196;2022-10-19T04:17:27;16.57;;;7.17;;
1048;SDS011;513;51.444;7.196;2022-10-19T04:19:54;13.77;;;7.03;;
1048;SDS011;513;51.444;7.196;2022-10-19T04:22:21;17.07;;;7.63;;
1048;SDS011;513;51.444;7.196;2022-10-19T04:24:47;20.00;;;8.80;;
1048;SDS011;513;51.444;7.196;2022-10-19T04:27:14;15.60;;;9.07;;
1048;SDS011;513;51.444;7.196;2022-10-19T04:29:41;20.83;;;9.53;;
1048;SDS011;513;51.444;7.196;2022-10-19T04:32:08;127.23;;;13.20;;
1048;SDS011;513;51.444;7.196;2022-10-19T04:34:35;37.57;;;9.83;;
1048;SDS011;513;51.444;7.196;2022-10-19T04:37:02;21.67;;;9.57;;
1048;SDS011;513;51.444;7.196;2022-10-19T04:39:29;31.13;;;10.13;;
1048;SDS011;513;51.444;7.196;2022-10-19T04:41:55;13.77;;;9.57;;
1048;SDS011;513;51.444;7.196;2022-10-19T04:44:22;24.63;;;8.90;;
1048;SDS011;513;51.444;7.196;2022-10-19T04:46:49;22.43;;;9.83;;
1048;SDS011;513;51.444;7.196;2022-10-19T04:49:15;14.93;;;9.33;;
1048;SDS011;513;51.444;7.196;2022-10-19T04:51:44;18.23;;;9.57;;
1048;SDS011;513;51.444;7.196;2022-10-19T04:54:11;45.30;;;10.73;;
1048;SDS011;513;51.444;7.196;2022-10-19T04:56:38;32.10;;;10.80;;
1048;SDS011;513;51.444;7.196;2022-10-19T04:59:04;67.53;;;13.13;;
1048;SDS011;513;51.444;7.196;2022-10-19T05:01:31;104.50;;;33.93;;
1048;SDS011;513;51.444;7.196;2022-10-19T05:03:58;44.17;;;12.43;;
1048;SDS011;513;51.444;7.196;2022-10-19T05:06:26;36.73;;;11.97;;
1048;SDS011;513;51.444;7.196;2022-10-19T05:08:55;75.80;;;14.43;;
1048;SDS011;513;51.444;7.196;2022-10-19T05:11:22;43.20;;;12.30;;
1048;SDS011;513;51.444;7.196;2022-10-19T05:13:49;121.20;;;16.33;;
1048;SDS011;513;51.444;7.196;2022-10-19T05:16:17;83.17;;;14.23;;
1048;SDS011;513;51.444;7.196;2022-10-19T05:18:48;94.47;;;14.00;;
1048;SDS011;513;51.444;7.196;2022-10-19T05:21:15;55.90;;;12.50;;
1048;SDS011;513;51.444;7.196;2022-10-19T05:23:43;79.43;;;12.73;;
1048;SDS011;513;51.444;7.196;2022-10-19T05:26:11;61.50;;;12.77;;
1048;SDS011;513;51.444;7.196;2022-10-19T05:28:41;37.53;;;12.57;;
1048;SDS011;513;51.444;7.196;2022-10-19T05:31:09;120.87;;;14.43;;
1048;SDS011;513;51.444;7.196;2022-10-19T05:33:40;74.13;;;12.03;;
1048;SDS011;513;51.444;7.196;2022-10-19T05:36:11;50.07;;;10.93;;
1048;SDS011;513;51.444;7.196;2022-10-19T05:38:39;30.97;;;10.50;;
1048;SDS011;513;51.444;7.196;2022-10-19T05:41:06;115.13;;;13.47;;
1048;SDS011;513;51.444;7.196;2022-10-19T05:43:34;115.60;;;13.50;;
1048;SDS011;513;51.444;7.196;2022-10-19T05:46:04;47.83;;;10.53;;
1048;SDS011;513;51.444;7.196;2022-10-19T05:48:33;30.70;;;10.80;;
1048;SDS011;513;51.444;7.196;2022-10-19T05:51:03;32.23;;;11.27;;
1048;SDS011;513;51.444;7.196;2022-10-19T05:53:31;33.60;;;11.50;;
1048;SDS011;513;51.444;7.196;2022-10-19T05:55:59;52.30;;;12.67;;
1048;SDS011;513;51.444;7.196;2022-10-19T05:58:25;39.03;;;12.10;;
1048;SDS011;513;51.444;7.196;2022-10-19T06:00:54;29.07;;;11.27;;
1048;SDS011;513;51.444;7.196;2022-10-19T06:03:22;21.90;;;11.70;;
1048;SDS011;513;51.444;7.196;2022-10-19T06:05:50;21.07;;;11.27;;
1048;SDS011;513;51.444;7.196;2022-10-19T06:08:18;23.17;;;11.37;;
1048;SDS011;513;51.444;7.196;2022-10-19T06:10:46;23.33;;;11.67;;
1048;SDS011;513;51.444;7.196;2022-10-19T06:13:13;25.00;;;11.83;;
1048;SDS011;513;51.444;7.196;2022-10-19T06:15:41;26.63;;;10.90;;
1048;SDS011;513;51.444;7.196;2022-10-19T06:18:09;29.07;;;11.30;;
1048;SDS011;513;51.444;7.196;2022-10-19T06:20:38;23.83;;;11.30;;
1048;SDS011;513;51.444;7.196;2022-10-19T06:23:07;29.90;;;11.00;;
1048;SDS011;513;51.444;7.196;2022-10-19T06:25:34;19.53;;;10.33;;
1048;SDS011;513;51.444;7.196;2022-10-19T06:28:02;23.83;;;11.43;;
1048;SDS011;513;51.444;7.196;2022-10-19T06:30:29;20.80;;;11.10;;
1048;SDS011;513;51.444;7.196;2022-10-19T06:32:57;33.00;;;11.30;;
1048;SDS011;513;51.444;7.196;2022-10-19T06:35:25;21.47;;;12.10;;
1048;SDS011;513;51.444;7.196;2022-10-19T06:37:54;18.50;;;10.83;;
1048;SDS011;513;51.444;7.196;2022-10-19T06:40:21;24.67;;;10.83;;
1048;SDS011;513;51.444;7.196;2022-10-19T06:42:47;25.40;;;11.63;;
1048;SDS011;513;51.444;7.196;2022-10-19T06:45:14;26.47;;;12.23;;
1048;SDS011;513;51.444;7.196;2022-10-19T06:47:41;21.93;;;11.73;;
1048;SDS011;513;51.444;7.196;2022-10-19T06:50:08;24.80;;;12.07;;
1048;SDS011;513;51.444;7.196;2022-10-19T06:52:36;24.27;;;12.30;;
1048;SDS011;513;51.444;7.196;2022-10-19T06:55:05;24.53;;;11.97;;
1048;SDS011;513;51.444;7.196;2022-10-19T06:57:32;26.90;;;11.77;;
1048;SDS011;513;51.444;7.196;2022-10-19T06:59:59;22.57;;;12.17;;
1048;SDS011;513;51.444;7.196;2022-10-19T07:02:25;28.00;;;12.67;;
1048;SDS011;513;51.444;7.196;2022-10-19T07:04:52;24.73;;;11.53;;
1048;SDS011;513;51.444;7.196;2022-10-19T07:07:18;25.40;;;12.60;;
1048;SDS011;513;51.444;7.196;2022-10-19T07:09:47;30.80;;;12.30;;
1048;SDS011;513;51.444;7.196;2022-10-19T07:12:14;19.70;;;11.20;;
1048;SDS011;513;51.444;7.196;2022-10-19T07:14:41;28.93;;;12.10;;
1048;SDS011;513;51.444;7.196;2022-10-19T07:17:09;34.30;;;12.43;;
1048;SDS011;513;51.444;7.196;2022-10-19T07:19:36;29.13;;;12.13;;
1048;SDS011;513;51.444;7.196;2022-10-19T07:22:03;32.50;;;12.73;;
1048;SDS011;513;51.444;7.196;2022-10-19T07:24:29;38.07;;;13.47;;
1048;SDS011;513;51.444;7.196;2022-10-19T07:26:57;31.50;;;14.53;;
1048;SDS011;513;51.444;7.196;2022-10-19T07:29:24;29.17;;;14.13;;
1048;SDS011;513;51.444;7.196;2022-10-19T07:31:51;37.37;;;14.80;;
1048;SDS011;513;51.444;7.196;2022-10-19T07:34:18;44.47;;;15.50;;
1048;SDS011;513;51.444;7.196;2022-10-19T07:36:44;78.07;;;16.23;;
1048;SDS011;513;51.444;7.196;2022-10-19T07:39:13;68.80;;;16.37;;
1048;SDS011;513;51.444;7.196;2022-10-19T07:41:41;89.73;;;18.10;;
1048;SDS011;513;51.444;7.196;2022-10-19T07:44:09;53.40;;;17.93;;
1048;SDS011;513;51.444;7.196;2022-10-19T07:46:35;48.07;;;19.77;;
1048;SDS011;513;51.444;7.196;2022-10-19T07:49:04;43.87;;;19.03;;
1048;SDS011;513;51.444;7.196;2022-10-19T07:51:33;48.70;;;19.77;;
1048;SDS011;513;51.444;7.196;2022-10-19T07:54:00;52.30;;;20.03;;
1048;SDS011;513;51.444;7.196;2022-10-19T07:56:28;51.83;;;21.40;;
1048;SDS011;513;51.444;7.196;2022-10-19T07:58:56;48.50;;;20.87;;
1048;SDS011;513;51.444;7.196;2022-10-19T08:01:25;45.80;;;20.00;;
1048;SDS011;513;51.444;7.196;2022-10-19T08:03:53;44.53;;;19.87;;
1048;SDS011;513;51.444;7.196;2022-10-19T08:06:21;55.67;;;21.60;;
1048;SDS011;513;51.444;7.196;2022-10-19T08:08:48;42.13;;;18.97;;
1048;SDS011;513;51.444;7.196;2022-10-19T08:11:16;41.80;;;18.33;;
1048;SDS011;513;51.444;7.196;2022-10-19T08:13:44;39.30;;;19.90;;
1048;SDS011;513;51.444;7.196;2022-10-19T08:16:22;50.80;;;20.67;;
1048;SDS011;513;51.444;7.196;2022-10-19T08:18:54;48.50;;;20.37;;
1048;SDS011;513;51.444;7.196;2022-10-19T08:21:22;45.17;;;20.57;;
1048;SDS011;513;51.444;7.196;2022-10-19T08:23:49;42.27;;;20.40;;
1048;SDS011;513;51.444;7.196;2022-10-19T08:26:15;54.07;;;21.03;;
1048;SDS011;513;51.444;7.196;2022-10-19T08:28:42;36.10;;;18.30;;
1048;SDS011;513;51.444;7.196;2022-10-19T08:31:09;40.80;;;19.30;;
1048;SDS011;513;51.444;7.196;2022-10-19T08:33:37;43.00;;;18.90;;
1048;SDS011;513;51.444;7.196;2022-10-19T08:36:05;43.27;;;20.23;;
1048;SDS011;513;51.444;7.196;2022-10-19T08:38:33;41.53;;;19.20;;
1048;SDS011;513;51.444;7.196;2022-10-19T08:41:05;44.07;;;19.90;;
1048;SDS011;513;51.444;7.196;2022-10-19T08:43:39;41.20;;;18.80;;
1048;SDS011;513;51.444;7.196;2022-10-19T08:46:18;41.17;;;20.10;;
1048;SDS011;513;51.444;7.196;2022-10-19T08:48:50;41.30;;;18.03;;
1048;SDS011;513;51.444;7.196;2022-10-19T08:51:18;35.67;;;15.93;;
1048;SDS011;513;51.444;7.196;2022-10-19T08:53:48;41.73;;;17.07;;
1048;SDS011;513;51.444;7.196;2022-10-19T08:56:20;38.50;;;15.67;;
1048;SDS011;513;51.444;7.196;2022-10-19T08:58:55;36.10;;;16.10;;
1048;SDS011;513;51.444;7.196;2022-10-19T09:01:36;37.50;;;16.10;;
1048;SDS011;513;51.444;7.196;2022-10-19T09:04:09;39.27;;;17.27;;
1048;SDS011;513;51.444;7.196;2022-10-19T09:06:45;41.67;;;17.60;;
1048;SDS011;513;51.444;7.196;2022-10-19T09:09:21;34.43;;;16.17;;
1048;SDS011;513;51.444;7.196;2022-10-19T09:11:49;36.20;;;15.87;;
1048;SDS011;513;51.444;7.196;2022-10-19T09:14:21;31.93;;;14.00;;
1048;SDS011;513;51.444;7.196;2022-10-19T09:16:56;33.27;;;14.50;;
1048;SDS011;513;51.444;7.196;2022-10-19T09:19:26;28.20;;;11.63;;
1048;SDS011;513;51.444;7.196;2022-10-19T09:21:57;32.70;;;10.57;;
1048;SDS011;513;51.444;7.196;2022-10-19T09:24:28;26.67;;;10.17;;
1048;SDS011;513;51.444;7.196;2022-10-19T09:27:00;18.30;;;8.37;;
1048;SDS011;513;51.444;7.196;2022-10-19T09:29:29;23.63;;;9.23;;
1048;SDS011;513;51.444;7.196;2022-10-19T09:32:02;15.90;;;7.47;;
1048;SDS011;513;51.444;7.196;2022-10-19T09:34:32;15.77;;;7.13;;
1048;SDS011;513;51.444;7.196;2022-10-19T09:37:02;17.70;;;5.70;;
1048;SDS011;513;51.444;7.196;2022-10-19T09:39:29;12.73;;;4.83;;
1048;SDS011;513;51.444;7.196;2022-10-19T09:41:56;10.27;;;4.10;;
1048;SDS011;513;51.444;7.196;2022-10-19T09:44:25;7.37;;;2.93;;
1048;SDS011;513;51.444;7.196;2022-10-19T09:46:53;6.97;;;2.50;;
1048;SDS011;513;51.444;7.196;2022-10-19T09:49:37;7.77;;;2.23;;
1048;SDS011;513;51.444;7.196;2022-10-19T09:52:09;9.10;;;2.40;;
1048;SDS011;513;51.444;7.196;2022-10-19T09:54:49;4.40;;;1.80;;
1048;SDS011;513;51.444;7.196;2022-10-19T09:57:23;6.20;;;2.10;;
1048;SDS011;513;51.444;7.196;2022-10-19T09:59:51;10.00;;;1.80;;
1048;SDS011;513;51.444;7.196;2022-10-19T10:02:18;3.60;;;1.73;;
1048;SDS011;513;51.444;7.196;2022-10-19T10:04:46;3.93;;;2.17;;
1048;SDS011;513;51.444;7.196;2022-10-19T10:07:23;6.63;;;1.90;;
1048;SDS011;513;51.444;7.196;2022-10-19T10:09:54;5.97;;;1.60;;
1048;SDS011;513;51.444;7.196;2022-10-19T10:12:21;2.80;;;1.60;;
1048;SDS011;513;51.444;7.196;2022-10-19T10:14:49;5.23;;;1.77;;
1048;SDS011;513;51.444;7.196;2022-10-19T10:17:17;7.50;;;1.43;;
1048;SDS011;513;51.444;7.196;2022-10-19T10:19:50;4.77;;;1.37;;
1048;SDS011;513;51.444;7.196;2022-10-19T10:22:31;5.07;;;1.43;;
1048;SDS011;513;51.444;7.196;2022-10-19T10:24:59;3.40;;;1.40;;
1048;SDS011;513;51.444;7.196;2022-10-19T10:27:29;2.47;;;1.30;;
1048;SDS011;513;51.444;7.196;2022-10-19T10:29:57;3.53;;;1.40;;
1048;SDS011;513;51.444;7.196;2022-10-19T10:32:24;7.03;;;1.50;;
1048;SDS011;513;51.444;7.196;2022-10-19T10:34:55;3.80;;;1.33;;
1048;SDS011;513;51.444;7.196;2022-10-19T10:37:27;2.87;;;1.13;;
1048;SDS011;513;51.444;7.196;2022-10-19T10:40:00;5.57;;;1.20;;
1048;SDS011;513;51.444;7.196;2022-10-19T10:42:29;6.03;;;1.57;;
1048;SDS011;513;51.444;7.196;2022-10-19T10:44:59;3.33;;;1.63;;
1048;SDS011;513;51.444;7.196;2022-10-19T10:47:28;2.50;;;1.40;;
1048;SDS011;513;51.444;7.196;2022-10-19T10:49:56;5.47;;;1.33;;
1048;SDS011;513;51.444;7.196;2022-10-19T10:52:25;4.27;;;1.70;;
1048;SDS011;513;51.444;7.196;2022-10-19T10:54:59;4.27;;;1.50;;
1048;SDS011;513;51.444;7.196;2022-10-19T10:57:39;5.57;;;1.43;;
1048;SDS011;513;51.444;7.196;2022-10-19T11:00:10;5.23;;;1.70;;
1048;SDS011;513;51.444;7.196;2022-10-19T11:02:41;8.67;;;1.80;;
1048;SDS011;513;51.444;7.196;2022-10-19T11:05:14;2.23;;;1.37;;
1048;SDS011;513;51.444;7.196;2022-10-19T11:07:44;3.13;;;1.63;;
1048;SDS011;513;51.444;7.196;2022-10-19T11:10:19;5.73;;;2.00;;
1048;SDS011;513;51.444;7.196;2022-10-19T11:12:50;5.93;;;1.60;;
1048;SDS011;513;51.444;7.196;2022-10-19T11:15:27;3.83;;;1.73;;
1048;SDS011;513;51.444;7.196;2022-10-19T11:18:01;2.20;;;1.60;;
1048;SDS011;513;51.444;7.196;2022-10-19T11:20:38;3.80;;;2.00;;
1048;SDS011;513;51.444;7.196;2022-10-19T11:23:11;7.87;;;1.90;;
1048;SDS011;513;51.444;7.196;2022-10-19T11:25:46;5.83;;;1.70;;
1048;SDS011;513;51.444;7.196;2022-10-19T11:31:14;4.50;;;1.30;;
1048;SDS011;513;51.444;7.196;2022-10-19T11:33:49;4.33;;;1.77;;
1048;SDS011;513;51.444;7.196;2022-10-19T11:36:25;5.87;;;1.90;;
1048;SDS011;513;51.444;7.196;2022-10-19T11:39:05;4.57;;;1.70;;
1048;SDS011;513;51.444;7.196;2022-10-19T11:41:55;5.37;;;1.83;;
1048;SDS011;513;51.444;7.196;2022-10-19T11:44:30;3.47;;;2.30;;
1048;SDS011;513;51.444;7.196;2022-10-19T11:47:15;3.27;;;1.70;;
1048;SDS011;513;51.444;7.196;2022-10-19T11:49:57;8.53;;;2.53;;
1048;SDS011;513;51.444;7.196;2022-10-19T11:52:35;5.40;;;1.60;;
1048;SDS011;513;51.444;7.196;2022-10-19T11:55:12;5.73;;;1.70;;
1048;SDS011;513;51.444;7.196;2022-10-19T11:57:58;4.17;;;1.40;;
1048;SDS011;513;51.444;7.196;2022-10-19T12:00:33;5.23;;;1.43;;
1048;SDS011;513;51.444;7.196;2022-10-19T12:03:24;5.13;;;1.80;;
1048;SDS011;513;51.444;7.196;2022-10-19T12:06:03;5.40;;;1.70;;
1048;SDS011;513;51.444;7.196;2022-10-19T12:08:43;4.40;;;1.50;;
1048;SDS011;513;51.444;7.196;2022-10-19T12:11:23;4.83;;;1.20;;
1048;SDS011;513;51.444;7.196;2022-10-19T12:14:02;2.17;;;1.13;;
1048;SDS011;513;51.444;7.196;2022-10-19T12:16:33;8.63;;;1.73;;
1048;SDS011;513;51.444;7.196;2022-10-19T12:19:03;6.03;;;2.67;;
1048;SDS011;513;51.444;7.196;2022-10-19T12:21:33;7.13;;;3.23;;
1048;SDS011;513;51.444;7.196;2022-10-19T12:24:04;2.60;;;1.30;;
1048;SDS011;513;51.444;7.196;2022-10-19T12:26:39;7.37;;;1.70;;
1048;SDS011;513;51.444;7.196;2022-10-19T12:29:11;6.47;;;1.90;;
1048;SDS011;513;51.444;7.196;2022-10-19T12:31:39;5.33;;;1.50;;
1048;SDS011;513;51.444;7.196;2022-10-19T12:34:08;3.87;;;1.30;;
1048;SDS011;513;51.444;7.196;2022-10-19T12:36:47;4.83;;;1.37;;
1048;SDS011;513;51.444;7.196;2022-10-19T12:39:20;5.30;;;1.47;;
1048;SDS011;513;51.444;7.196;2022-10-19T12:41:51;6.83;;;1.10;;
1048;SDS011;513;51.444;7.196;2022-10-19T12:53:48;5.33;;;1.53;;
1048;SDS011;513;51.444;7.196;2022-10-19T12:56:17;6.37;;;1.53;;
1048;SDS011;513;51.444;7.196;2022-10-19T12:58:50;5.43;;;1.50;;
1048;SDS011;513;51.444;7.196;2022-10-19T13:01:22;4.10;;;1.67;;
1048;SDS011;513;51.444;7.196;2022-10-19T13:04:04;4.63;;;1.23;;
1048;SDS011;513;51.444;7.196;2022-10-19T13:06:33;5.40;;;1.50;;
1048;SDS011;513;51.444;7.196;2022-10-19T13:09:02;3.83;;;1.50;;
1048;SDS011;513;51.444;7.196;2022-10-19T13:11:30;6.70;;;1.70;;
1048;SDS011;513;51.444;7.196;2022-10-19T13:13:58;7.07;;;1.97;;
1048;SDS011;513;51.444;7.196;2022-10-19T13:19:24;4.50;;;2.40;;
1048;SDS011;513;51.444;7.196;2022-10-19T13:21:52;6.60;;;1.50;;
1048;SDS011;513;51.444;7.196;2022-10-19T13:24:35;4.40;;;2.07;;
1048;SDS011;513;51.444;7.196;2022-10-19T13:27:18;7.63;;;1.87;;
1048;SDS011;513;51.444;7.196;2022-10-19T13:30:02;4.53;;;1.63;;
1048;SDS011;513;51.444;7.196;2022-10-19T13:32:40;3.83;;;1.63;;
1048;SDS011;513;51.444;7.196;2022-10-19T13:35:26;4.30;;;1.87;;
1048;SDS011;513;51.444;7.196;2022-10-19T13:38:09;5.23;;;1.60;;
1048;SDS011;513;51.444;7.196;2022-10-19T13:41:00;3.20;;;1.33;;
1048;SDS011;513;51.444;7.196;2022-10-19T13:43:30;7.10;;;1.60;;
1048;SDS011;513;51.444;7.196;2022-10-19T13:46:06;4.10;;;1.60;;
1048;SDS011;513;51.444;7.196;2022-10-19T13:48:37;4.90;;;1.63;;
1048;SDS011;513;51.444;7.196;2022-10-19T13:51:41;6.30;;;1.60;;
1048;SDS011;513;51.444;7.196;2022-10-19T13:54:23;4.07;;;1.87;;
1048;SDS011;513;51.444;7.196;2022-10-19T13:57:04;7.13;;;2.00;;
1048;SDS011;513;51.444;7.196;2022-10-19T14:02:42;6.20;;;3.03;;
1048;SDS011;513;51.444;7.196;2022-10-19T14:05:25;8.67;;;2.10;;
1048;SDS011;513;51.444;7.196;2022-10-19T14:08:12;5.73;;;1.60;;
1048;SDS011;513;51.444;7.196;2022-10-19T14:10:50;6.23;;;2.13;;
1048;SDS011;513;51.444;7.196;2022-10-19T14:13:24;4.97;;;2.40;;
1048;SDS011;513;51.444;7.196;2022-10-19T14:15:52;7.40;;;2.10;;
1048;SDS011;513;51.444;7.196;2022-10-19T14:18:21;4.47;;;1.63;;
1048;SDS011;513;51.444;7.196;2022-10-19T14:20:55;5.90;;;2.00;;
1048;SDS011;513;51.444;7.196;2022-10-19T14:23:25;5.77;;;1.70;;
1048;SDS011;513;51.444;7.196;2022-10-19T14:25:53;6.70;;;1.90;;
1048;SDS011;513;51.444;7.196;2022-10-19T14:28:23;3.13;;;1.77;;
1048;SDS011;513;51.444;7.196;2022-10-19T14:30:54;8.07;;;1.90;;
1048;SDS011;513;51.444;7.196;2022-10-19T14:33:23;5.37;;;2.20;;
1048;SDS011;513;51.444;7.196;2022-10-19T14:35:51;3.97;;;1.70;;
1048;SDS011;513;51.444;7.196;2022-10-19T14:38:19;5.23;;;1.97;;
1048;SDS011;513;51.444;7.196;2022-10-19T14:40:51;8.73;;;2.33;;
1048;SDS011;513;51.444;7.196;2022-10-19T14:43:19;3.97;;;2.20;;
1048;SDS011;513;51.444;7.196;2022-10-19T14:46:03;6.43;;;2.00;;
1048;SDS011;513;51.444;7.196;2022-10-19T14:48:36;6.40;;;1.80;;
1048;SDS011;513;51.444;7.196;2022-10-19T14:51:04;8.10;;;2.23;;
1048;SDS011;513;51.444;7.196;2022-10-19T14:53:40;3.10;;;1.70;;
1048;SDS011;513;51.444;7.196;2022-10-19T14:56:11;2.50;;;1.80;;
1048;SDS011;513;51.444;7.196;2022-10-19T14:58:42;7.27;;;2.20;;
1048;SDS011;513;51.444;7.196;2022-10-19T15:01:14;6.80;;;1.80;;
1048;SDS011;513;51.444;7.196;2022-10-19T15:03:42;16.57;;;5.57;;
1048;SDS011;513;51.444;7.196;2022-10-19T15:06:15;7.00;;;2.20;;
1048;SDS011;513;51.444;7.196;2022-10-19T15:08:44;3.80;;;1.67;;
1048;SDS011;513;51.444;7.196;2022-10-19T15:11:23;6.07;;;2.27;;
1048;SDS011;513;51.444;7.196;2022-10-19T15:13:55;4.73;;;2.03;;
1048;SDS011;513;51.444;7.196;2022-10-19T15:16:29;4.10;;;2.03;;
1048;SDS011;513;51.444;7.196;2022-10-19T15:19:01;3.97;;;1.90;;
1048;SDS011;513;51.444;7.196;2022-10-19T15:21:28;5.53;;;2.10;;
1048;SDS011;513;51.444;7.196;2022-10-19T15:24:03;3.57;;;1.80;;
1048;SDS011;513;51.444;7.196;2022-10-19T15:26:33;3.27;;;2.10;;
1048;SDS011;513;51.444;7.196;2022-10-19T15:29:06;6.23;;;4.00;;
1048;SDS011;513;51.444;7.196;2022-10-19T15:31:34;4.87;;;1.83;;
1048;SDS011;513;51.444;7.196;2022-10-19T15:34:01;6.00;;;1.73;;
1048;SDS011;513;51.444;7.196;2022-10-19T15:36:29;3.03;;;1.60;;
1048;SDS011;513;51.444;7.196;2022-10-19T15:39:00;6.17;;;1.70;;
1048;SDS011;513;51.444;7.196;2022-10-19T15:41:31;3.70;;;1.90;;
1048;SDS011;513;51.444;7.196;2022-10-19T15:44:02;3.00;;;1.70;;
1048;SDS011;513;51.444;7.196;2022-10-19T15:46:32;4.73;;;1.60;;
1048;SDS011;513;51.444;7.196;2022-10-19T15:49:00;4.00;;;1.73;;
1048;SDS011;513;51.444;7.196;2022-10-19T15:51:34;2.87;;;1.83;;
1048;SDS011;513;51.444;7.196;2022-10-19T15:54:08;4.57;;;1.80;;
1048;SDS011;513;51.444;7.196;2022-10-19T15:56:37;8.07;;;1.90;;
1048;SDS011;513;51.444;7.196;2022-10-19T15:59:05;9.03;;;1.40;;